<?xml version="1.0" encoding="UTF-8" standalone="no" ?>
<gpx xmlns="http://www.topografix.com/GPX/1/1" xmlns:xsi="http://www.w3.org/2001/XMLSchema-instance" xsi:schemaLocation="http://www.topografix.com/GPX/1/1 http://www.topografix.com/GPX/1/1/gpx.xsd" version="1.1" creator="VisuGPX - https://www.visugpx.com">
  <metadata>
    <name>J3:Refuge Respumoso (2190m) ==&gt; Pico de la Frondella(3050m)</name>
    <desc><![CDATA[Partir derrière le refuge par des pentes soutenues direction nord, passer à l\'Ouest de l%u2019arête \'\'Le Bondidier\'\' et depuis le cirque supérieur gagner le sommet par un couloir évident(45 à 50°) en crampon piolet.]]></desc>
  </metadata>
  <trk>
    <name><![CDATA[J3 Tour Frondellas depuis ref Respumoso]]></name>
    <cmt><![CDATA[La pente est soutenue dès le départ.Pente à 45-50° dans le couloir qui mène au sommet. Le sommet est très large.]]></cmt>
    <desc><![CDATA[La pente est soutenue dès le départ.Pente à 45-50° dans le couloir qui mène au sommet. Le sommet est très large.]]></desc>
    <trkseg>
      <trkpt lat="42.81681" lon="-0.28776">
        <ele>2146.8</ele>
        <time>2014-06-29T12:22:01Z</time>
      </trkpt>
      <trkpt lat="42.81686" lon="-0.28776">
        <ele>2146.3</ele>
        <time>2014-06-29T12:22:21Z</time>
      </trkpt>
      <trkpt lat="42.81686" lon="-0.28774">
        <ele>2146.3</ele>
        <time>2014-06-29T12:22:41Z</time>
      </trkpt>
      <trkpt lat="42.81687" lon="-0.28776">
        <ele>2145.8</ele>
        <time>2014-06-29T12:23:01Z</time>
      </trkpt>
      <trkpt lat="42.81686" lon="-0.28774">
        <ele>2145.3</ele>
        <time>2014-06-29T12:23:21Z</time>
      </trkpt>
      <trkpt lat="42.81685" lon="-0.2876">
        <ele>2148.2</ele>
        <time>2014-06-29T12:23:41Z</time>
      </trkpt>
      <trkpt lat="42.81689" lon="-0.28748">
        <ele>2147.2</ele>
        <time>2014-06-29T12:24:01Z</time>
      </trkpt>
      <trkpt lat="42.81696" lon="-0.28739">
        <ele>2147.7</ele>
        <time>2014-06-29T12:24:21Z</time>
      </trkpt>
      <trkpt lat="42.81706" lon="-0.28735">
        <ele>2148.7</ele>
        <time>2014-06-29T12:24:41Z</time>
      </trkpt>
      <trkpt lat="42.81719" lon="-0.28739">
        <ele>2151.1</ele>
        <time>2014-06-29T12:25:01Z</time>
      </trkpt>
      <trkpt lat="42.81755" lon="-0.28737">
        <ele>2155.9</ele>
        <time>2014-06-29T12:25:21Z</time>
      </trkpt>
      <trkpt lat="42.81769" lon="-0.28738">
        <ele>2159.7</ele>
        <time>2014-06-29T12:25:41Z</time>
      </trkpt>
      <trkpt lat="42.81786" lon="-0.28752">
        <ele>2163.1</ele>
        <time>2014-06-29T12:26:01Z</time>
      </trkpt>
      <trkpt lat="42.81797" lon="-0.28754">
        <ele>2167.9</ele>
        <time>2014-06-29T12:26:21Z</time>
      </trkpt>
      <trkpt lat="42.81799" lon="-0.28745">
        <ele>2169.8</ele>
        <time>2014-06-29T12:26:41Z</time>
      </trkpt>
      <trkpt lat="42.81794" lon="-0.28749">
        <ele>2170.3</ele>
        <time>2014-06-29T12:27:01Z</time>
      </trkpt>
      <trkpt lat="42.81802" lon="-0.28745">
        <ele>2172.2</ele>
        <time>2014-06-29T12:27:21Z</time>
      </trkpt>
      <trkpt lat="42.81814" lon="-0.28757">
        <ele>2176.1</ele>
        <time>2014-06-29T12:27:41Z</time>
      </trkpt>
      <trkpt lat="42.8182" lon="-0.28773">
        <ele>2179.9</ele>
        <time>2014-06-29T12:28:01Z</time>
      </trkpt>
      <trkpt lat="42.81829" lon="-0.28776">
        <ele>2182.8</ele>
        <time>2014-06-29T12:28:21Z</time>
      </trkpt>
      <trkpt lat="42.81835" lon="-0.28752">
        <ele>2185.7</ele>
        <time>2014-06-29T12:28:41Z</time>
      </trkpt>
      <trkpt lat="42.81845" lon="-0.28735">
        <ele>2186.7</ele>
        <time>2014-06-29T12:29:01Z</time>
      </trkpt>
      <trkpt lat="42.81854" lon="-0.28728">
        <ele>2189.1</ele>
        <time>2014-06-29T12:29:21Z</time>
      </trkpt>
      <trkpt lat="42.81872" lon="-0.28673">
        <ele>2200.1</ele>
        <time>2014-06-29T12:29:41Z</time>
      </trkpt>
      <trkpt lat="42.8187" lon="-0.28662">
        <ele>2204</ele>
        <time>2014-06-29T12:30:01Z</time>
      </trkpt>
      <trkpt lat="42.81885" lon="-0.28668">
        <ele>2212.6</ele>
        <time>2014-06-29T12:30:21Z</time>
      </trkpt>
      <trkpt lat="42.81886" lon="-0.28658">
        <ele>2216</ele>
        <time>2014-06-29T12:30:41Z</time>
      </trkpt>
      <trkpt lat="42.81895" lon="-0.28661">
        <ele>2216.5</ele>
        <time>2014-06-29T12:31:01Z</time>
      </trkpt>
      <trkpt lat="42.81903" lon="-0.28701">
        <ele>2219.3</ele>
        <time>2014-06-29T12:31:21Z</time>
      </trkpt>
      <trkpt lat="42.81902" lon="-0.28723">
        <ele>2223.2</ele>
        <time>2014-06-29T12:31:41Z</time>
      </trkpt>
      <trkpt lat="42.81906" lon="-0.28751">
        <ele>2233.8</ele>
        <time>2014-06-29T12:32:01Z</time>
      </trkpt>
      <trkpt lat="42.81909" lon="-0.28749">
        <ele>2233.8</ele>
        <time>2014-06-29T12:32:21Z</time>
      </trkpt>
      <trkpt lat="42.81914" lon="-0.28753">
        <ele>2234.2</ele>
        <time>2014-06-29T12:32:41Z</time>
      </trkpt>
      <trkpt lat="42.81917" lon="-0.28759">
        <ele>2232.3</ele>
        <time>2014-06-29T12:33:01Z</time>
      </trkpt>
      <trkpt lat="42.81921" lon="-0.28759">
        <ele>2232.3</ele>
        <time>2014-06-29T12:33:21Z</time>
      </trkpt>
      <trkpt lat="42.81929" lon="-0.28745">
        <ele>2233.3</ele>
        <time>2014-06-29T12:33:41Z</time>
      </trkpt>
      <trkpt lat="42.81934" lon="-0.2874">
        <ele>2237.6</ele>
        <time>2014-06-29T12:34:01Z</time>
      </trkpt>
      <trkpt lat="42.8194" lon="-0.28751">
        <ele>2241.5</ele>
        <time>2014-06-29T12:34:21Z</time>
      </trkpt>
      <trkpt lat="42.81949" lon="-0.28746">
        <ele>2242.4</ele>
        <time>2014-06-29T12:34:41Z</time>
      </trkpt>
      <trkpt lat="42.81959" lon="-0.28731">
        <ele>2239</ele>
        <time>2014-06-29T12:35:01Z</time>
      </trkpt>
      <trkpt lat="42.81957" lon="-0.28728">
        <ele>2240</ele>
        <time>2014-06-29T12:35:21Z</time>
      </trkpt>
      <trkpt lat="42.81963" lon="-0.28717">
        <ele>2242.4</ele>
        <time>2014-06-29T12:35:41Z</time>
      </trkpt>
      <trkpt lat="42.81964" lon="-0.28724">
        <ele>2246.7</ele>
        <time>2014-06-29T12:36:01Z</time>
      </trkpt>
      <trkpt lat="42.81971" lon="-0.28721">
        <ele>2249.1</ele>
        <time>2014-06-29T12:36:21Z</time>
      </trkpt>
      <trkpt lat="42.81975" lon="-0.28709">
        <ele>2252</ele>
        <time>2014-06-29T12:36:41Z</time>
      </trkpt>
      <trkpt lat="42.81981" lon="-0.2871">
        <ele>2253</ele>
        <time>2014-06-29T12:37:01Z</time>
      </trkpt>
      <trkpt lat="42.81991" lon="-0.28701">
        <ele>2257.3</ele>
        <time>2014-06-29T12:37:21Z</time>
      </trkpt>
      <trkpt lat="42.81993" lon="-0.28707">
        <ele>2261.2</ele>
        <time>2014-06-29T12:37:41Z</time>
      </trkpt>
      <trkpt lat="42.81999" lon="-0.28702">
        <ele>2259.7</ele>
        <time>2014-06-29T12:38:01Z</time>
      </trkpt>
      <trkpt lat="42.82002" lon="-0.28687">
        <ele>2261.6</ele>
        <time>2014-06-29T12:38:21Z</time>
      </trkpt>
      <trkpt lat="42.82005" lon="-0.28682">
        <ele>2267.4</ele>
        <time>2014-06-29T12:38:41Z</time>
      </trkpt>
      <trkpt lat="42.82009" lon="-0.28689">
        <ele>2268.8</ele>
        <time>2014-06-29T12:39:01Z</time>
      </trkpt>
      <trkpt lat="42.82011" lon="-0.28687">
        <ele>2269.8</ele>
        <time>2014-06-29T12:39:21Z</time>
      </trkpt>
      <trkpt lat="42.82013" lon="-0.28681">
        <ele>2268.8</ele>
        <time>2014-06-29T12:39:41Z</time>
      </trkpt>
      <trkpt lat="42.82011" lon="-0.28669">
        <ele>2272.2</ele>
        <time>2014-06-29T12:40:01Z</time>
      </trkpt>
      <trkpt lat="42.82011" lon="-0.28662">
        <ele>2276.5</ele>
        <time>2014-06-29T12:40:21Z</time>
      </trkpt>
      <trkpt lat="42.82021" lon="-0.28672">
        <ele>2280.4</ele>
        <time>2014-06-29T12:40:41Z</time>
      </trkpt>
      <trkpt lat="42.82023" lon="-0.28672">
        <ele>2282.8</ele>
        <time>2014-06-29T12:41:01Z</time>
      </trkpt>
      <trkpt lat="42.82023" lon="-0.28659">
        <ele>2287.6</ele>
        <time>2014-06-29T12:41:21Z</time>
      </trkpt>
      <trkpt lat="42.82027" lon="-0.28609">
        <ele>2296.7</ele>
        <time>2014-06-29T12:41:41Z</time>
      </trkpt>
      <trkpt lat="42.82029" lon="-0.28601">
        <ele>2296.7</ele>
        <time>2014-06-29T12:42:01Z</time>
      </trkpt>
      <trkpt lat="42.82029" lon="-0.28593">
        <ele>2292.9</ele>
        <time>2014-06-29T12:42:21Z</time>
      </trkpt>
      <trkpt lat="42.82029" lon="-0.28591">
        <ele>2294.3</ele>
        <time>2014-06-29T12:42:41Z</time>
      </trkpt>
      <trkpt lat="42.82037" lon="-0.28582">
        <ele>2293.8</ele>
        <time>2014-06-29T12:43:01Z</time>
      </trkpt>
      <trkpt lat="42.82046" lon="-0.28572">
        <ele>2290</ele>
        <time>2014-06-29T12:43:21Z</time>
      </trkpt>
      <trkpt lat="42.82074" lon="-0.28543">
        <ele>2290</ele>
        <time>2014-06-29T12:43:41Z</time>
      </trkpt>
      <trkpt lat="42.82073" lon="-0.28544">
        <ele>2292.4</ele>
        <time>2014-06-29T12:44:01Z</time>
      </trkpt>
      <trkpt lat="42.82078" lon="-0.28542">
        <ele>2299.1</ele>
        <time>2014-06-29T12:44:21Z</time>
      </trkpt>
      <trkpt lat="42.82086" lon="-0.28539">
        <ele>2301.5</ele>
        <time>2014-06-29T12:44:41Z</time>
      </trkpt>
      <trkpt lat="42.82093" lon="-0.28539">
        <ele>2301.5</ele>
        <time>2014-06-29T12:45:01Z</time>
      </trkpt>
      <trkpt lat="42.82108" lon="-0.28552">
        <ele>2301.1</ele>
        <time>2014-06-29T12:45:21Z</time>
      </trkpt>
      <trkpt lat="42.82104" lon="-0.28553">
        <ele>2310.2</ele>
        <time>2014-06-29T12:45:41Z</time>
      </trkpt>
      <trkpt lat="42.82107" lon="-0.28555">
        <ele>2312.1</ele>
        <time>2014-06-29T12:46:01Z</time>
      </trkpt>
      <trkpt lat="42.82104" lon="-0.28566">
        <ele>2316.4</ele>
        <time>2014-06-29T12:46:21Z</time>
      </trkpt>
      <trkpt lat="42.82103" lon="-0.28582">
        <ele>2321.2</ele>
        <time>2014-06-29T12:46:41Z</time>
      </trkpt>
      <trkpt lat="42.82107" lon="-0.28596">
        <ele>2321.2</ele>
        <time>2014-06-29T12:47:01Z</time>
      </trkpt>
      <trkpt lat="42.82107" lon="-0.28608">
        <ele>2330.9</ele>
        <time>2014-06-29T12:47:21Z</time>
      </trkpt>
      <trkpt lat="42.82101" lon="-0.28612">
        <ele>2332.8</ele>
        <time>2014-06-29T12:47:41Z</time>
      </trkpt>
      <trkpt lat="42.82101" lon="-0.28612">
        <ele>2334.2</ele>
        <time>2014-06-29T12:48:01Z</time>
      </trkpt>
      <trkpt lat="42.82099" lon="-0.28624">
        <ele>2341.9</ele>
        <time>2014-06-29T12:48:21Z</time>
      </trkpt>
      <trkpt lat="42.82114" lon="-0.28636">
        <ele>2350.6</ele>
        <time>2014-06-29T12:48:41Z</time>
      </trkpt>
      <trkpt lat="42.82128" lon="-0.28635">
        <ele>2355.4</ele>
        <time>2014-06-29T12:49:01Z</time>
      </trkpt>
      <trkpt lat="42.82138" lon="-0.28628">
        <ele>2356.3</ele>
        <time>2014-06-29T12:49:21Z</time>
      </trkpt>
      <trkpt lat="42.82146" lon="-0.28619">
        <ele>2362.6</ele>
        <time>2014-06-29T12:49:41Z</time>
      </trkpt>
      <trkpt lat="42.82154" lon="-0.28614">
        <ele>2365</ele>
        <time>2014-06-29T12:50:01Z</time>
      </trkpt>
      <trkpt lat="42.82167" lon="-0.28611">
        <ele>2368.3</ele>
        <time>2014-06-29T12:50:21Z</time>
      </trkpt>
      <trkpt lat="42.82175" lon="-0.28612">
        <ele>2368.3</ele>
        <time>2014-06-29T12:50:41Z</time>
      </trkpt>
      <trkpt lat="42.82167" lon="-0.2863">
        <ele>2381.8</ele>
        <time>2014-06-29T12:51:01Z</time>
      </trkpt>
      <trkpt lat="42.82163" lon="-0.28643">
        <ele>2387.6</ele>
        <time>2014-06-29T12:51:21Z</time>
      </trkpt>
      <trkpt lat="42.82151" lon="-0.28711">
        <ele>2406.3</ele>
        <time>2014-06-29T12:51:41Z</time>
      </trkpt>
      <trkpt lat="42.82152" lon="-0.28718">
        <ele>2408.7</ele>
        <time>2014-06-29T12:52:01Z</time>
      </trkpt>
      <trkpt lat="42.82152" lon="-0.28718">
        <ele>2411.1</ele>
        <time>2014-06-29T12:52:21Z</time>
      </trkpt>
      <trkpt lat="42.82155" lon="-0.28719">
        <ele>2408.2</ele>
        <time>2014-06-29T12:52:41Z</time>
      </trkpt>
      <trkpt lat="42.82163" lon="-0.28725">
        <ele>2407.8</ele>
        <time>2014-06-29T12:53:01Z</time>
      </trkpt>
      <trkpt lat="42.82174" lon="-0.28723">
        <ele>2409.7</ele>
        <time>2014-06-29T12:53:21Z</time>
      </trkpt>
      <trkpt lat="42.82182" lon="-0.28724">
        <ele>2412.1</ele>
        <time>2014-06-29T12:53:41Z</time>
      </trkpt>
      <trkpt lat="42.82166" lon="-0.28758">
        <ele>2419.3</ele>
        <time>2014-06-29T12:54:01Z</time>
      </trkpt>
      <trkpt lat="42.82165" lon="-0.28767">
        <ele>2422.2</ele>
        <time>2014-06-29T12:54:21Z</time>
      </trkpt>
      <trkpt lat="42.82174" lon="-0.28769">
        <ele>2424.6</ele>
        <time>2014-06-29T12:54:41Z</time>
      </trkpt>
      <trkpt lat="42.82181" lon="-0.28767">
        <ele>2425.1</ele>
        <time>2014-06-29T12:55:01Z</time>
      </trkpt>
      <trkpt lat="42.82182" lon="-0.28771">
        <ele>2428.4</ele>
        <time>2014-06-29T12:55:21Z</time>
      </trkpt>
      <trkpt lat="42.8218" lon="-0.28785">
        <ele>2430.4</ele>
        <time>2014-06-29T12:55:41Z</time>
      </trkpt>
      <trkpt lat="42.82172" lon="-0.28799">
        <ele>2434.2</ele>
        <time>2014-06-29T12:56:01Z</time>
      </trkpt>
      <trkpt lat="42.82163" lon="-0.28807">
        <ele>2436.6</ele>
        <time>2014-06-29T12:56:21Z</time>
      </trkpt>
      <trkpt lat="42.82166" lon="-0.28816">
        <ele>2439</ele>
        <time>2014-06-29T12:56:41Z</time>
      </trkpt>
      <trkpt lat="42.82172" lon="-0.28826">
        <ele>2440.4</ele>
        <time>2014-06-29T12:57:01Z</time>
      </trkpt>
      <trkpt lat="42.82175" lon="-0.28837">
        <ele>2442.8</ele>
        <time>2014-06-29T12:57:21Z</time>
      </trkpt>
      <trkpt lat="42.82167" lon="-0.28869">
        <ele>2448.1</ele>
        <time>2014-06-29T12:57:41Z</time>
      </trkpt>
      <trkpt lat="42.82182" lon="-0.28871">
        <ele>2449.1</ele>
        <time>2014-06-29T12:58:01Z</time>
      </trkpt>
      <trkpt lat="42.82191" lon="-0.2887">
        <ele>2453.9</ele>
        <time>2014-06-29T12:58:21Z</time>
      </trkpt>
      <trkpt lat="42.82191" lon="-0.28878">
        <ele>2454.9</ele>
        <time>2014-06-29T12:58:41Z</time>
      </trkpt>
      <trkpt lat="42.82185" lon="-0.28888">
        <ele>2458.7</ele>
        <time>2014-06-29T12:59:01Z</time>
      </trkpt>
      <trkpt lat="42.82186" lon="-0.2889">
        <ele>2460.6</ele>
        <time>2014-06-29T12:59:21Z</time>
      </trkpt>
      <trkpt lat="42.82193" lon="-0.28886">
        <ele>2464.5</ele>
        <time>2014-06-29T12:59:41Z</time>
      </trkpt>
      <trkpt lat="42.82209" lon="-0.28883">
        <ele>2470.7</ele>
        <time>2014-06-29T13:00:01Z</time>
      </trkpt>
      <trkpt lat="42.82217" lon="-0.2888">
        <ele>2471.2</ele>
        <time>2014-06-29T13:00:21Z</time>
      </trkpt>
      <trkpt lat="42.82219" lon="-0.28883">
        <ele>2474.1</ele>
        <time>2014-06-29T13:00:41Z</time>
      </trkpt>
      <trkpt lat="42.82214" lon="-0.28902">
        <ele>2476.5</ele>
        <time>2014-06-29T13:01:01Z</time>
      </trkpt>
      <trkpt lat="42.82217" lon="-0.28913">
        <ele>2479.9</ele>
        <time>2014-06-29T13:01:21Z</time>
      </trkpt>
      <trkpt lat="42.82225" lon="-0.28927">
        <ele>2481.8</ele>
        <time>2014-06-29T13:01:41Z</time>
      </trkpt>
      <trkpt lat="42.82226" lon="-0.28927">
        <ele>2479.4</ele>
        <time>2014-06-29T13:02:01Z</time>
      </trkpt>
      <trkpt lat="42.82232" lon="-0.2893">
        <ele>2479.4</ele>
        <time>2014-06-29T13:02:21Z</time>
      </trkpt>
      <trkpt lat="42.82238" lon="-0.2893">
        <ele>2481.3</ele>
        <time>2014-06-29T13:02:41Z</time>
      </trkpt>
      <trkpt lat="42.82248" lon="-0.28925">
        <ele>2485.6</ele>
        <time>2014-06-29T13:03:01Z</time>
      </trkpt>
      <trkpt lat="42.82265" lon="-0.28922">
        <ele>2487.1</ele>
        <time>2014-06-29T13:03:21Z</time>
      </trkpt>
      <trkpt lat="42.8227" lon="-0.28921">
        <ele>2491.9</ele>
        <time>2014-06-29T13:03:41Z</time>
      </trkpt>
      <trkpt lat="42.82276" lon="-0.28918">
        <ele>2490.4</ele>
        <time>2014-06-29T13:04:01Z</time>
      </trkpt>
      <trkpt lat="42.82292" lon="-0.28902">
        <ele>2497.6</ele>
        <time>2014-06-29T13:04:21Z</time>
      </trkpt>
      <trkpt lat="42.82301" lon="-0.28898">
        <ele>2500.5</ele>
        <time>2014-06-29T13:04:41Z</time>
      </trkpt>
      <trkpt lat="42.82307" lon="-0.28892">
        <ele>2506.8</ele>
        <time>2014-06-29T13:05:01Z</time>
      </trkpt>
      <trkpt lat="42.82328" lon="-0.28924">
        <ele>2519.8</ele>
        <time>2014-06-29T13:05:21Z</time>
      </trkpt>
      <trkpt lat="42.82344" lon="-0.28944">
        <ele>2518.8</ele>
        <time>2014-06-29T13:05:41Z</time>
      </trkpt>
      <trkpt lat="42.82351" lon="-0.28955">
        <ele>2523.6</ele>
        <time>2014-06-29T13:06:01Z</time>
      </trkpt>
      <trkpt lat="42.82363" lon="-0.28965">
        <ele>2527.4</ele>
        <time>2014-06-29T13:06:21Z</time>
      </trkpt>
      <trkpt lat="42.82373" lon="-0.28973">
        <ele>2533.2</ele>
        <time>2014-06-29T13:06:41Z</time>
      </trkpt>
      <trkpt lat="42.82384" lon="-0.28978">
        <ele>2535.6</ele>
        <time>2014-06-29T13:07:01Z</time>
      </trkpt>
      <trkpt lat="42.82387" lon="-0.28981">
        <ele>2536.1</ele>
        <time>2014-06-29T13:07:21Z</time>
      </trkpt>
      <trkpt lat="42.82385" lon="-0.28981">
        <ele>2537.1</ele>
        <time>2014-06-29T13:07:41Z</time>
      </trkpt>
      <trkpt lat="42.82397" lon="-0.28949">
        <ele>2540.9</ele>
        <time>2014-06-29T13:08:01Z</time>
      </trkpt>
      <trkpt lat="42.82401" lon="-0.28944">
        <ele>2541.4</ele>
        <time>2014-06-29T13:08:21Z</time>
      </trkpt>
      <trkpt lat="42.82405" lon="-0.28953">
        <ele>2547.2</ele>
        <time>2014-06-29T13:08:41Z</time>
      </trkpt>
      <trkpt lat="42.82422" lon="-0.28971">
        <ele>2551.5</ele>
        <time>2014-06-29T13:09:01Z</time>
      </trkpt>
      <trkpt lat="42.82429" lon="-0.28994">
        <ele>2558.7</ele>
        <time>2014-06-29T13:09:21Z</time>
      </trkpt>
      <trkpt lat="42.82437" lon="-0.28999">
        <ele>2561.6</ele>
        <time>2014-06-29T13:09:41Z</time>
      </trkpt>
      <trkpt lat="42.82439" lon="-0.28984">
        <ele>2567.3</ele>
        <time>2014-06-29T13:10:01Z</time>
      </trkpt>
      <trkpt lat="42.82447" lon="-0.28958">
        <ele>2573.1</ele>
        <time>2014-06-29T13:10:21Z</time>
      </trkpt>
      <trkpt lat="42.82453" lon="-0.28965">
        <ele>2576.5</ele>
        <time>2014-06-29T13:10:41Z</time>
      </trkpt>
      <trkpt lat="42.82464" lon="-0.28986">
        <ele>2583.7</ele>
        <time>2014-06-29T13:11:01Z</time>
      </trkpt>
      <trkpt lat="42.82468" lon="-0.28999">
        <ele>2583.7</ele>
        <time>2014-06-29T13:11:21Z</time>
      </trkpt>
      <trkpt lat="42.82475" lon="-0.29028">
        <ele>2591.9</ele>
        <time>2014-06-29T13:11:41Z</time>
      </trkpt>
      <trkpt lat="42.82488" lon="-0.29048">
        <ele>2595.7</ele>
        <time>2014-06-29T13:12:01Z</time>
      </trkpt>
      <trkpt lat="42.82493" lon="-0.29035">
        <ele>2602.9</ele>
        <time>2014-06-29T13:12:21Z</time>
      </trkpt>
      <trkpt lat="42.82497" lon="-0.29026">
        <ele>2603.9</ele>
        <time>2014-06-29T13:12:41Z</time>
      </trkpt>
      <trkpt lat="42.82501" lon="-0.29017">
        <ele>2612</ele>
        <time>2014-06-29T13:13:01Z</time>
      </trkpt>
      <trkpt lat="42.8251" lon="-0.29001">
        <ele>2616.4</ele>
        <time>2014-06-29T13:13:21Z</time>
      </trkpt>
      <trkpt lat="42.82517" lon="-0.29005">
        <ele>2616.4</ele>
        <time>2014-06-29T13:13:41Z</time>
      </trkpt>
      <trkpt lat="42.82518" lon="-0.29013">
        <ele>2618.3</ele>
        <time>2014-06-29T13:14:01Z</time>
      </trkpt>
      <trkpt lat="42.82525" lon="-0.29019">
        <ele>2614.4</ele>
        <time>2014-06-29T13:14:21Z</time>
      </trkpt>
      <trkpt lat="42.82538" lon="-0.29019">
        <ele>2615.9</ele>
        <time>2014-06-29T13:14:41Z</time>
      </trkpt>
      <trkpt lat="42.82544" lon="-0.29011">
        <ele>2620.2</ele>
        <time>2014-06-29T13:15:01Z</time>
      </trkpt>
      <trkpt lat="42.82549" lon="-0.29003">
        <ele>2626.5</ele>
        <time>2014-06-29T13:15:21Z</time>
      </trkpt>
      <trkpt lat="42.82553" lon="-0.28994">
        <ele>2628.4</ele>
        <time>2014-06-29T13:15:41Z</time>
      </trkpt>
      <trkpt lat="42.82564" lon="-0.28967">
        <ele>2642.3</ele>
        <time>2014-06-29T13:16:01Z</time>
      </trkpt>
      <trkpt lat="42.82571" lon="-0.28954">
        <ele>2646.6</ele>
        <time>2014-06-29T13:16:21Z</time>
      </trkpt>
      <trkpt lat="42.82578" lon="-0.28941">
        <ele>2646.6</ele>
        <time>2014-06-29T13:16:41Z</time>
      </trkpt>
      <trkpt lat="42.82586" lon="-0.28939">
        <ele>2648.6</ele>
        <time>2014-06-29T13:17:01Z</time>
      </trkpt>
      <trkpt lat="42.82586" lon="-0.28936">
        <ele>2651</ele>
        <time>2014-06-29T13:17:21Z</time>
      </trkpt>
      <trkpt lat="42.82604" lon="-0.28963">
        <ele>2656.3</ele>
        <time>2014-06-29T13:17:41Z</time>
      </trkpt>
      <trkpt lat="42.82614" lon="-0.28974">
        <ele>2662</ele>
        <time>2014-06-29T13:18:01Z</time>
      </trkpt>
      <trkpt lat="42.82622" lon="-0.28979">
        <ele>2667.8</ele>
        <time>2014-06-29T13:18:21Z</time>
      </trkpt>
      <trkpt lat="42.82655" lon="-0.28997">
        <ele>2668.3</ele>
        <time>2014-06-29T13:18:41Z</time>
      </trkpt>
      <trkpt lat="42.82662" lon="-0.29007">
        <ele>2668.3</ele>
        <time>2014-06-29T13:19:01Z</time>
      </trkpt>
      <trkpt lat="42.82674" lon="-0.29053">
        <ele>2673.6</ele>
        <time>2014-06-29T13:19:21Z</time>
      </trkpt>
      <trkpt lat="42.8268" lon="-0.29059">
        <ele>2674.5</ele>
        <time>2014-06-29T13:19:41Z</time>
      </trkpt>
      <trkpt lat="42.82692" lon="-0.29081">
        <ele>2681.3</ele>
        <time>2014-06-29T13:20:01Z</time>
      </trkpt>
      <trkpt lat="42.82701" lon="-0.29075">
        <ele>2678.9</ele>
        <time>2014-06-29T13:20:21Z</time>
      </trkpt>
      <trkpt lat="42.82731" lon="-0.29036">
        <ele>2693.8</ele>
        <time>2014-06-29T13:20:41Z</time>
      </trkpt>
      <trkpt lat="42.82732" lon="-0.29051">
        <ele>2695.2</ele>
        <time>2014-06-29T13:21:01Z</time>
      </trkpt>
      <trkpt lat="42.82748" lon="-0.29078">
        <ele>2702.4</ele>
        <time>2014-06-29T13:21:21Z</time>
      </trkpt>
      <trkpt lat="42.8275" lon="-0.29074">
        <ele>2703.8</ele>
        <time>2014-06-29T13:21:41Z</time>
      </trkpt>
      <trkpt lat="42.82753" lon="-0.29071">
        <ele>2702.9</ele>
        <time>2014-06-29T13:22:01Z</time>
      </trkpt>
      <trkpt lat="42.82755" lon="-0.29057">
        <ele>2708.2</ele>
        <time>2014-06-29T13:22:21Z</time>
      </trkpt>
      <trkpt lat="42.82759" lon="-0.29043">
        <ele>2709.6</ele>
        <time>2014-06-29T13:22:41Z</time>
      </trkpt>
      <trkpt lat="42.82761" lon="-0.29039">
        <ele>2714.9</ele>
        <time>2014-06-29T13:23:01Z</time>
      </trkpt>
      <trkpt lat="42.82767" lon="-0.29055">
        <ele>2720.7</ele>
        <time>2014-06-29T13:23:21Z</time>
      </trkpt>
      <trkpt lat="42.82773" lon="-0.29075">
        <ele>2723.6</ele>
        <time>2014-06-29T13:23:41Z</time>
      </trkpt>
      <trkpt lat="42.82782" lon="-0.29024">
        <ele>2730.8</ele>
        <time>2014-06-29T13:24:01Z</time>
      </trkpt>
      <trkpt lat="42.82782" lon="-0.28999">
        <ele>2734.6</ele>
        <time>2014-06-29T13:24:21Z</time>
      </trkpt>
      <trkpt lat="42.82788" lon="-0.28977">
        <ele>2729.8</ele>
        <time>2014-06-29T13:24:41Z</time>
      </trkpt>
      <trkpt lat="42.82792" lon="-0.28952">
        <ele>2728.8</ele>
        <time>2014-06-29T13:25:01Z</time>
      </trkpt>
      <trkpt lat="42.82792" lon="-0.28921">
        <ele>2735.6</ele>
        <time>2014-06-29T13:25:21Z</time>
      </trkpt>
      <trkpt lat="42.82797" lon="-0.28914">
        <ele>2736</ele>
        <time>2014-06-29T13:25:41Z</time>
      </trkpt>
      <trkpt lat="42.82808" lon="-0.28904">
        <ele>2738</ele>
        <time>2014-06-29T13:26:01Z</time>
      </trkpt>
      <trkpt lat="42.82836" lon="-0.28903">
        <ele>2735.1</ele>
        <time>2014-06-29T13:26:21Z</time>
      </trkpt>
      <trkpt lat="42.82844" lon="-0.289">
        <ele>2738.5</ele>
        <time>2014-06-29T13:26:41Z</time>
      </trkpt>
      <trkpt lat="42.82852" lon="-0.289">
        <ele>2745.2</ele>
        <time>2014-06-29T13:27:01Z</time>
      </trkpt>
      <trkpt lat="42.82866" lon="-0.28898">
        <ele>2748.1</ele>
        <time>2014-06-29T13:27:21Z</time>
      </trkpt>
      <trkpt lat="42.82866" lon="-0.28894">
        <ele>2748.5</ele>
        <time>2014-06-29T13:27:41Z</time>
      </trkpt>
      <trkpt lat="42.82867" lon="-0.28895">
        <ele>2750.9</ele>
        <time>2014-06-29T13:28:01Z</time>
      </trkpt>
      <trkpt lat="42.82871" lon="-0.28898">
        <ele>2751.4</ele>
        <time>2014-06-29T13:28:21Z</time>
      </trkpt>
      <trkpt lat="42.82873" lon="-0.28894">
        <ele>2754.3</ele>
        <time>2014-06-29T13:28:41Z</time>
      </trkpt>
      <trkpt lat="42.82881" lon="-0.28893">
        <ele>2751.9</ele>
        <time>2014-06-29T13:29:01Z</time>
      </trkpt>
      <trkpt lat="42.82897" lon="-0.28901">
        <ele>2762</ele>
        <time>2014-06-29T13:29:21Z</time>
      </trkpt>
      <trkpt lat="42.82903" lon="-0.28887">
        <ele>2763</ele>
        <time>2014-06-29T13:29:41Z</time>
      </trkpt>
      <trkpt lat="42.82905" lon="-0.28874">
        <ele>2762.5</ele>
        <time>2014-06-29T13:30:01Z</time>
      </trkpt>
      <trkpt lat="42.82912" lon="-0.28882">
        <ele>2765.4</ele>
        <time>2014-06-29T13:30:21Z</time>
      </trkpt>
      <trkpt lat="42.82919" lon="-0.28895">
        <ele>2766.3</ele>
        <time>2014-06-29T13:30:41Z</time>
      </trkpt>
      <trkpt lat="42.82917" lon="-0.28941">
        <ele>2775</ele>
        <time>2014-06-29T13:31:01Z</time>
      </trkpt>
      <trkpt lat="42.82917" lon="-0.28953">
        <ele>2780.3</ele>
        <time>2014-06-29T13:31:21Z</time>
      </trkpt>
      <trkpt lat="42.82925" lon="-0.28975">
        <ele>2781.7</ele>
        <time>2014-06-29T13:31:41Z</time>
      </trkpt>
      <trkpt lat="42.82932" lon="-0.28964">
        <ele>2781.7</ele>
        <time>2014-06-29T13:32:01Z</time>
      </trkpt>
      <trkpt lat="42.8294" lon="-0.28958">
        <ele>2784.1</ele>
        <time>2014-06-29T13:32:21Z</time>
      </trkpt>
      <trkpt lat="42.82946" lon="-0.28951">
        <ele>2786.5</ele>
        <time>2014-06-29T13:32:41Z</time>
      </trkpt>
      <trkpt lat="42.82965" lon="-0.28932">
        <ele>2780.8</ele>
        <time>2014-06-29T13:33:01Z</time>
      </trkpt>
      <trkpt lat="42.82975" lon="-0.28917">
        <ele>2789.4</ele>
        <time>2014-06-29T13:33:21Z</time>
      </trkpt>
      <trkpt lat="42.82973" lon="-0.28948">
        <ele>2794.7</ele>
        <time>2014-06-29T13:33:41Z</time>
      </trkpt>
      <trkpt lat="42.82968" lon="-0.28961">
        <ele>2802.4</ele>
        <time>2014-06-29T13:34:01Z</time>
      </trkpt>
      <trkpt lat="42.82965" lon="-0.28976">
        <ele>2807.7</ele>
        <time>2014-06-29T13:34:21Z</time>
      </trkpt>
      <trkpt lat="42.82968" lon="-0.28977">
        <ele>2808.6</ele>
        <time>2014-06-29T13:34:41Z</time>
      </trkpt>
      <trkpt lat="42.82974" lon="-0.28969">
        <ele>2812</ele>
        <time>2014-06-29T13:35:01Z</time>
      </trkpt>
      <trkpt lat="42.82989" lon="-0.28961">
        <ele>2811.5</ele>
        <time>2014-06-29T13:35:21Z</time>
      </trkpt>
      <trkpt lat="42.82982" lon="-0.28976">
        <ele>2814.9</ele>
        <time>2014-06-29T13:35:41Z</time>
      </trkpt>
      <trkpt lat="42.82981" lon="-0.28982">
        <ele>2813.9</ele>
        <time>2014-06-29T13:36:01Z</time>
      </trkpt>
      <trkpt lat="42.82981" lon="-0.28989">
        <ele>2815.8</ele>
        <time>2014-06-29T13:36:21Z</time>
      </trkpt>
      <trkpt lat="42.82992" lon="-0.28985">
        <ele>2819.7</ele>
        <time>2014-06-29T13:36:41Z</time>
      </trkpt>
      <trkpt lat="42.82996" lon="-0.2898">
        <ele>2820.6</ele>
        <time>2014-06-29T13:37:01Z</time>
      </trkpt>
      <trkpt lat="42.83003" lon="-0.28976">
        <ele>2819.7</ele>
        <time>2014-06-29T13:37:21Z</time>
      </trkpt>
      <trkpt lat="42.83024" lon="-0.28947">
        <ele>2836.5</ele>
        <time>2014-06-29T13:37:41Z</time>
      </trkpt>
      <trkpt lat="42.83036" lon="-0.28933">
        <ele>2839.4</ele>
        <time>2014-06-29T13:38:01Z</time>
      </trkpt>
      <trkpt lat="42.83034" lon="-0.2893">
        <ele>2838.9</ele>
        <time>2014-06-29T13:38:21Z</time>
      </trkpt>
      <trkpt lat="42.83036" lon="-0.28932">
        <ele>2838.4</ele>
        <time>2014-06-29T13:38:41Z</time>
      </trkpt>
      <trkpt lat="42.83039" lon="-0.28921">
        <ele>2838.4</ele>
        <time>2014-06-29T13:39:01Z</time>
      </trkpt>
      <trkpt lat="42.83046" lon="-0.2889">
        <ele>2841.3</ele>
        <time>2014-06-29T13:39:21Z</time>
      </trkpt>
      <trkpt lat="42.83048" lon="-0.28902">
        <ele>2846.1</ele>
        <time>2014-06-29T13:39:41Z</time>
      </trkpt>
      <trkpt lat="42.83051" lon="-0.2892">
        <ele>2850.4</ele>
        <time>2014-06-29T13:40:01Z</time>
      </trkpt>
      <trkpt lat="42.83051" lon="-0.2893">
        <ele>2856.7</ele>
        <time>2014-06-29T13:40:21Z</time>
      </trkpt>
      <trkpt lat="42.8306" lon="-0.28915">
        <ele>2858.6</ele>
        <time>2014-06-29T13:40:41Z</time>
      </trkpt>
      <trkpt lat="42.83065" lon="-0.28919">
        <ele>2859.6</ele>
        <time>2014-06-29T13:41:01Z</time>
      </trkpt>
      <trkpt lat="42.83065" lon="-0.28937">
        <ele>2863.4</ele>
        <time>2014-06-29T13:41:21Z</time>
      </trkpt>
      <trkpt lat="42.83072" lon="-0.28945">
        <ele>2864.4</ele>
        <time>2014-06-29T13:41:41Z</time>
      </trkpt>
      <trkpt lat="42.83075" lon="-0.28946">
        <ele>2857.2</ele>
        <time>2014-06-29T13:42:01Z</time>
      </trkpt>
      <trkpt lat="42.83076" lon="-0.28948">
        <ele>2855.7</ele>
        <time>2014-06-29T13:42:21Z</time>
      </trkpt>
      <trkpt lat="42.83074" lon="-0.28948">
        <ele>2866.8</ele>
        <time>2014-06-29T13:42:41Z</time>
      </trkpt>
      <trkpt lat="42.83075" lon="-0.2894">
        <ele>2863.4</ele>
        <time>2014-06-29T13:43:01Z</time>
      </trkpt>
      <trkpt lat="42.83073" lon="-0.28944">
        <ele>2860.1</ele>
        <time>2014-06-29T13:43:21Z</time>
      </trkpt>
      <trkpt lat="42.83076" lon="-0.28968">
        <ele>2862.5</ele>
        <time>2014-06-29T13:43:41Z</time>
      </trkpt>
      <trkpt lat="42.83075" lon="-0.28981">
        <ele>2864.9</ele>
        <time>2014-06-29T13:44:01Z</time>
      </trkpt>
      <trkpt lat="42.8308" lon="-0.28989">
        <ele>2867.3</ele>
        <time>2014-06-29T13:44:21Z</time>
      </trkpt>
      <trkpt lat="42.83081" lon="-0.29007">
        <ele>2871.1</ele>
        <time>2014-06-29T13:44:41Z</time>
      </trkpt>
      <trkpt lat="42.83083" lon="-0.29015">
        <ele>2875.9</ele>
        <time>2014-06-29T13:45:01Z</time>
      </trkpt>
      <trkpt lat="42.83087" lon="-0.29016">
        <ele>2877.4</ele>
        <time>2014-06-29T13:45:21Z</time>
      </trkpt>
      <trkpt lat="42.83089" lon="-0.29022">
        <ele>2880.7</ele>
        <time>2014-06-29T13:45:41Z</time>
      </trkpt>
      <trkpt lat="42.83091" lon="-0.2903">
        <ele>2882.7</ele>
        <time>2014-06-29T13:46:01Z</time>
      </trkpt>
      <trkpt lat="42.83093" lon="-0.2903">
        <ele>2886.5</ele>
        <time>2014-06-29T13:46:21Z</time>
      </trkpt>
      <trkpt lat="42.83095" lon="-0.29036">
        <ele>2884.6</ele>
        <time>2014-06-29T13:46:41Z</time>
      </trkpt>
      <trkpt lat="42.83101" lon="-0.29044">
        <ele>2885.5</ele>
        <time>2014-06-29T13:47:01Z</time>
      </trkpt>
      <trkpt lat="42.83101" lon="-0.29051">
        <ele>2887.5</ele>
        <time>2014-06-29T13:47:21Z</time>
      </trkpt>
      <trkpt lat="42.83106" lon="-0.29062">
        <ele>2888.9</ele>
        <time>2014-06-29T13:47:41Z</time>
      </trkpt>
      <trkpt lat="42.8311" lon="-0.29066">
        <ele>2892.3</ele>
        <time>2014-06-29T13:48:01Z</time>
      </trkpt>
      <trkpt lat="42.83115" lon="-0.29063">
        <ele>2893.2</ele>
        <time>2014-06-29T13:48:21Z</time>
      </trkpt>
      <trkpt lat="42.83116" lon="-0.29071">
        <ele>2892.7</ele>
        <time>2014-06-29T13:48:41Z</time>
      </trkpt>
      <trkpt lat="42.83115" lon="-0.29077">
        <ele>2897.1</ele>
        <time>2014-06-29T13:49:01Z</time>
      </trkpt>
      <trkpt lat="42.83116" lon="-0.29077">
        <ele>2898.5</ele>
        <time>2014-06-29T13:49:21Z</time>
      </trkpt>
      <trkpt lat="42.83118" lon="-0.29083">
        <ele>2899</ele>
        <time>2014-06-29T13:49:41Z</time>
      </trkpt>
      <trkpt lat="42.8312" lon="-0.2909">
        <ele>2903.3</ele>
        <time>2014-06-29T13:50:01Z</time>
      </trkpt>
      <trkpt lat="42.83119" lon="-0.29091">
        <ele>2904.8</ele>
        <time>2014-06-29T13:50:21Z</time>
      </trkpt>
      <trkpt lat="42.83122" lon="-0.29095">
        <ele>2903.8</ele>
        <time>2014-06-29T13:50:41Z</time>
      </trkpt>
      <trkpt lat="42.83122" lon="-0.29102">
        <ele>2903.8</ele>
        <time>2014-06-29T13:51:01Z</time>
      </trkpt>
      <trkpt lat="42.83129" lon="-0.2912">
        <ele>2912.5</ele>
        <time>2014-06-29T13:51:21Z</time>
      </trkpt>
      <trkpt lat="42.8313" lon="-0.29122">
        <ele>2914.9</ele>
        <time>2014-06-29T13:51:41Z</time>
      </trkpt>
      <trkpt lat="42.83132" lon="-0.29134">
        <ele>2919.7</ele>
        <time>2014-06-29T13:52:01Z</time>
      </trkpt>
      <trkpt lat="42.83131" lon="-0.29138">
        <ele>2920.1</ele>
        <time>2014-06-29T13:52:21Z</time>
      </trkpt>
      <trkpt lat="42.8313" lon="-0.2915">
        <ele>2925.9</ele>
        <time>2014-06-29T13:52:41Z</time>
      </trkpt>
      <trkpt lat="42.83128" lon="-0.29153">
        <ele>2930.7</ele>
        <time>2014-06-29T13:53:01Z</time>
      </trkpt>
      <trkpt lat="42.83133" lon="-0.29151">
        <ele>2931.7</ele>
        <time>2014-06-29T13:53:21Z</time>
      </trkpt>
      <trkpt lat="42.83131" lon="-0.29162">
        <ele>2942.7</ele>
        <time>2014-06-29T13:53:41Z</time>
      </trkpt>
      <trkpt lat="42.83132" lon="-0.29169">
        <ele>2943.7</ele>
        <time>2014-06-29T13:54:01Z</time>
      </trkpt>
      <trkpt lat="42.83129" lon="-0.29171">
        <ele>2946.6</ele>
        <time>2014-06-29T13:54:21Z</time>
      </trkpt>
      <trkpt lat="42.83131" lon="-0.29175">
        <ele>2949</ele>
        <time>2014-06-29T13:54:41Z</time>
      </trkpt>
      <trkpt lat="42.83133" lon="-0.29173">
        <ele>2950.4</ele>
        <time>2014-06-29T13:55:01Z</time>
      </trkpt>
      <trkpt lat="42.83134" lon="-0.29178">
        <ele>2953.8</ele>
        <time>2014-06-29T13:55:21Z</time>
      </trkpt>
      <trkpt lat="42.83131" lon="-0.2919">
        <ele>2965.8</ele>
        <time>2014-06-29T13:55:41Z</time>
      </trkpt>
      <trkpt lat="42.83132" lon="-0.29211">
        <ele>2974.5</ele>
        <time>2014-06-29T13:56:01Z</time>
      </trkpt>
      <trkpt lat="42.83133" lon="-0.29213">
        <ele>2974.9</ele>
        <time>2014-06-29T13:56:21Z</time>
      </trkpt>
      <trkpt lat="42.83135" lon="-0.29209">
        <ele>2980.2</ele>
        <time>2014-06-29T13:56:41Z</time>
      </trkpt>
      <trkpt lat="42.83134" lon="-0.29218">
        <ele>2986.5</ele>
        <time>2014-06-29T13:57:01Z</time>
      </trkpt>
      <trkpt lat="42.83138" lon="-0.2922">
        <ele>2986</ele>
        <time>2014-06-29T13:57:21Z</time>
      </trkpt>
      <trkpt lat="42.83139" lon="-0.29222">
        <ele>2984.1</ele>
        <time>2014-06-29T13:57:41Z</time>
      </trkpt>
      <trkpt lat="42.83147" lon="-0.29223">
        <ele>2983.1</ele>
        <time>2014-06-29T13:58:01Z</time>
      </trkpt>
      <trkpt lat="42.83155" lon="-0.29223">
        <ele>2987</ele>
        <time>2014-06-29T13:58:21Z</time>
      </trkpt>
      <trkpt lat="42.83158" lon="-0.29225">
        <ele>2985.5</ele>
        <time>2014-06-29T13:58:41Z</time>
      </trkpt>
      <trkpt lat="42.83157" lon="-0.29229">
        <ele>2991.8</ele>
        <time>2014-06-29T13:59:01Z</time>
      </trkpt>
      <trkpt lat="42.83163" lon="-0.29231">
        <ele>2995.6</ele>
        <time>2014-06-29T13:59:21Z</time>
      </trkpt>
      <trkpt lat="42.83164" lon="-0.29233">
        <ele>2999.9</ele>
        <time>2014-06-29T13:59:41Z</time>
      </trkpt>
      <trkpt lat="42.83168" lon="-0.29236">
        <ele>3001.9</ele>
        <time>2014-06-29T14:00:01Z</time>
      </trkpt>
      <trkpt lat="42.83169" lon="-0.29237">
        <ele>3006.2</ele>
        <time>2014-06-29T14:00:21Z</time>
      </trkpt>
      <trkpt lat="42.83172" lon="-0.29233">
        <ele>3005.2</ele>
        <time>2014-06-29T14:00:41Z</time>
      </trkpt>
      <trkpt lat="42.83175" lon="-0.29237">
        <ele>3005.2</ele>
        <time>2014-06-29T14:01:01Z</time>
      </trkpt>
      <trkpt lat="42.83176" lon="-0.29242">
        <ele>3010</ele>
        <time>2014-06-29T14:01:21Z</time>
      </trkpt>
      <trkpt lat="42.83186" lon="-0.29247">
        <ele>3013.4</ele>
        <time>2014-06-29T14:01:41Z</time>
      </trkpt>
      <trkpt lat="42.83193" lon="-0.29246">
        <ele>3018.2</ele>
        <time>2014-06-29T14:02:01Z</time>
      </trkpt>
      <trkpt lat="42.83195" lon="-0.29244">
        <ele>3019.6</ele>
        <time>2014-06-29T14:02:21Z</time>
      </trkpt>
      <trkpt lat="42.83192" lon="-0.29244">
        <ele>3019.6</ele>
        <time>2014-06-29T14:02:41Z</time>
      </trkpt>
      <trkpt lat="42.832" lon="-0.29243">
        <ele>3020.6</ele>
        <time>2014-06-29T14:03:01Z</time>
      </trkpt>
      <trkpt lat="42.83203" lon="-0.2924">
        <ele>3021.1</ele>
        <time>2014-06-29T14:03:21Z</time>
      </trkpt>
      <trkpt lat="42.832" lon="-0.29237">
        <ele>3022</ele>
        <time>2014-06-29T14:03:41Z</time>
      </trkpt>
      <trkpt lat="42.83208" lon="-0.2921">
        <ele>3033.6</ele>
        <time>2014-06-29T14:04:01Z</time>
      </trkpt>
      <trkpt lat="42.83215" lon="-0.29186">
        <ele>3040.3</ele>
        <time>2014-06-29T14:04:21Z</time>
      </trkpt>
      <trkpt lat="42.83214" lon="-0.2919">
        <ele>3040.8</ele>
        <time>2014-06-29T14:04:41Z</time>
      </trkpt>
      <trkpt lat="42.83217" lon="-0.29195">
        <ele>3042.7</ele>
        <time>2014-06-29T14:05:01Z</time>
      </trkpt>
      <trkpt lat="42.83215" lon="-0.29196">
        <ele>3043.7</ele>
        <time>2014-06-29T14:05:21Z</time>
      </trkpt>
      <trkpt lat="42.83207" lon="-0.29228">
        <ele>3040.3</ele>
        <time>2014-06-29T14:05:41Z</time>
      </trkpt>
      <trkpt lat="42.83208" lon="-0.29248">
        <ele>3042.7</ele>
        <time>2014-06-29T14:06:01Z</time>
      </trkpt>
      <trkpt lat="42.83209" lon="-0.29261">
        <ele>3047</ele>
        <time>2014-06-29T14:06:21Z</time>
      </trkpt>
      <trkpt lat="42.83219" lon="-0.29284">
        <ele>3054.2</ele>
        <time>2014-06-29T14:06:41Z</time>
      </trkpt>
      <trkpt lat="42.83219" lon="-0.29284">
        <ele>3055.7</ele>
        <time>2014-06-29T14:07:01Z</time>
      </trkpt>
      <trkpt lat="42.83215" lon="-0.29287">
        <ele>3053.8</ele>
        <time>2014-06-29T14:07:21Z</time>
      </trkpt>
      <trkpt lat="42.83216" lon="-0.29279">
        <ele>3050.4</ele>
        <time>2014-06-29T14:07:41Z</time>
      </trkpt>
      <trkpt lat="42.83204" lon="-0.29256">
        <ele>3043.2</ele>
        <time>2014-06-29T14:08:01Z</time>
      </trkpt>
      <trkpt lat="42.83204" lon="-0.29249">
        <ele>3041.7</ele>
        <time>2014-06-29T14:08:21Z</time>
      </trkpt>
      <trkpt lat="42.83197" lon="-0.29238">
        <ele>3037.9</ele>
        <time>2014-06-29T14:08:41Z</time>
      </trkpt>
      <trkpt lat="42.83189" lon="-0.29243">
        <ele>3034.5</ele>
        <time>2014-06-29T14:09:01Z</time>
      </trkpt>
      <trkpt lat="42.8318" lon="-0.29243">
        <ele>3028.8</ele>
        <time>2014-06-29T14:09:21Z</time>
      </trkpt>
      <trkpt lat="42.83179" lon="-0.29239">
        <ele>3027.8</ele>
        <time>2014-06-29T14:09:41Z</time>
      </trkpt>
      <trkpt lat="42.83174" lon="-0.29239">
        <ele>3024.9</ele>
        <time>2014-06-29T14:10:01Z</time>
      </trkpt>
      <trkpt lat="42.83168" lon="-0.29235">
        <ele>3022.5</ele>
        <time>2014-06-29T14:10:21Z</time>
      </trkpt>
      <trkpt lat="42.83167" lon="-0.29237">
        <ele>3020.1</ele>
        <time>2014-06-29T14:10:41Z</time>
      </trkpt>
      <trkpt lat="42.83168" lon="-0.29234">
        <ele>3019.6</ele>
        <time>2014-06-29T14:11:01Z</time>
      </trkpt>
      <trkpt lat="42.83158" lon="-0.29232">
        <ele>3016.3</ele>
        <time>2014-06-29T14:11:21Z</time>
      </trkpt>
      <trkpt lat="42.83156" lon="-0.29234">
        <ele>3015.3</ele>
        <time>2014-06-29T14:11:41Z</time>
      </trkpt>
      <trkpt lat="42.8314" lon="-0.29227">
        <ele>3016.8</ele>
        <time>2014-06-29T14:12:01Z</time>
      </trkpt>
      <trkpt lat="42.83142" lon="-0.29229">
        <ele>3019.2</ele>
        <time>2014-06-29T14:12:21Z</time>
      </trkpt>
      <trkpt lat="42.83148" lon="-0.2923">
        <ele>3011.5</ele>
        <time>2014-06-29T14:12:41Z</time>
      </trkpt>
      <trkpt lat="42.83149" lon="-0.29225">
        <ele>3007.6</ele>
        <time>2014-06-29T14:13:01Z</time>
      </trkpt>
      <trkpt lat="42.83143" lon="-0.29212">
        <ele>3005.7</ele>
        <time>2014-06-29T14:13:21Z</time>
      </trkpt>
      <trkpt lat="42.83137" lon="-0.29202">
        <ele>2999.9</ele>
        <time>2014-06-29T14:13:41Z</time>
      </trkpt>
      <trkpt lat="42.83137" lon="-0.29192">
        <ele>2993.2</ele>
        <time>2014-06-29T14:14:01Z</time>
      </trkpt>
      <trkpt lat="42.83127" lon="-0.29173">
        <ele>2980.7</ele>
        <time>2014-06-29T14:14:21Z</time>
      </trkpt>
      <trkpt lat="42.83126" lon="-0.29166">
        <ele>2974.5</ele>
        <time>2014-06-29T14:14:41Z</time>
      </trkpt>
      <trkpt lat="42.83123" lon="-0.29155">
        <ele>2968.7</ele>
        <time>2014-06-29T14:15:01Z</time>
      </trkpt>
      <trkpt lat="42.8312" lon="-0.29151">
        <ele>2964.4</ele>
        <time>2014-06-29T14:15:21Z</time>
      </trkpt>
      <trkpt lat="42.83118" lon="-0.29143">
        <ele>2958.1</ele>
        <time>2014-06-29T14:15:41Z</time>
      </trkpt>
      <trkpt lat="42.83117" lon="-0.29137">
        <ele>2952.8</ele>
        <time>2014-06-29T14:16:01Z</time>
      </trkpt>
      <trkpt lat="42.83118" lon="-0.29138">
        <ele>2951.4</ele>
        <time>2014-06-29T14:16:21Z</time>
      </trkpt>
      <trkpt lat="42.83115" lon="-0.29132">
        <ele>2950.4</ele>
        <time>2014-06-29T14:16:41Z</time>
      </trkpt>
      <trkpt lat="42.83117" lon="-0.29132">
        <ele>2944.7</ele>
        <time>2014-06-29T14:17:01Z</time>
      </trkpt>
      <trkpt lat="42.83119" lon="-0.2912">
        <ele>2935</ele>
        <time>2014-06-29T14:17:21Z</time>
      </trkpt>
      <trkpt lat="42.83121" lon="-0.29106">
        <ele>2933.1</ele>
        <time>2014-06-29T14:17:41Z</time>
      </trkpt>
      <trkpt lat="42.83116" lon="-0.2909">
        <ele>2930.2</ele>
        <time>2014-06-29T14:18:01Z</time>
      </trkpt>
      <trkpt lat="42.83115" lon="-0.29082">
        <ele>2924.9</ele>
        <time>2014-06-29T14:18:21Z</time>
      </trkpt>
      <trkpt lat="42.83111" lon="-0.29071">
        <ele>2921.1</ele>
        <time>2014-06-29T14:18:41Z</time>
      </trkpt>
      <trkpt lat="42.8311" lon="-0.29064">
        <ele>2912</ele>
        <time>2014-06-29T14:19:01Z</time>
      </trkpt>
      <trkpt lat="42.83113" lon="-0.29072">
        <ele>2909.6</ele>
        <time>2014-06-29T14:19:21Z</time>
      </trkpt>
      <trkpt lat="42.83111" lon="-0.29056">
        <ele>2903.8</ele>
        <time>2014-06-29T14:19:41Z</time>
      </trkpt>
      <trkpt lat="42.83109" lon="-0.29049">
        <ele>2900.4</ele>
        <time>2014-06-29T14:20:01Z</time>
      </trkpt>
      <trkpt lat="42.83109" lon="-0.29044">
        <ele>2897.1</ele>
        <time>2014-06-29T14:20:21Z</time>
      </trkpt>
      <trkpt lat="42.83104" lon="-0.29032">
        <ele>2892.3</ele>
        <time>2014-06-29T14:20:41Z</time>
      </trkpt>
      <trkpt lat="42.83101" lon="-0.29017">
        <ele>2887.9</ele>
        <time>2014-06-29T14:21:01Z</time>
      </trkpt>
      <trkpt lat="42.83088" lon="-0.28987">
        <ele>2878.3</ele>
        <time>2014-06-29T14:21:21Z</time>
      </trkpt>
      <trkpt lat="42.8308" lon="-0.28967">
        <ele>2876.4</ele>
        <time>2014-06-29T14:21:41Z</time>
      </trkpt>
      <trkpt lat="42.83054" lon="-0.28915">
        <ele>2870.2</ele>
        <time>2014-06-29T14:22:01Z</time>
      </trkpt>
      <trkpt lat="42.83063" lon="-0.28924">
        <ele>2867.8</ele>
        <time>2014-06-29T14:22:21Z</time>
      </trkpt>
      <trkpt lat="42.83068" lon="-0.28939">
        <ele>2867.8</ele>
        <time>2014-06-29T14:22:41Z</time>
      </trkpt>
      <trkpt lat="42.83067" lon="-0.28943">
        <ele>2869.2</ele>
        <time>2014-06-29T14:23:01Z</time>
      </trkpt>
      <trkpt lat="42.83069" lon="-0.28947">
        <ele>2871.1</ele>
        <time>2014-06-29T14:23:21Z</time>
      </trkpt>
      <trkpt lat="42.83067" lon="-0.28947">
        <ele>2870.2</ele>
        <time>2014-06-29T14:23:41Z</time>
      </trkpt>
      <trkpt lat="42.83068" lon="-0.28951">
        <ele>2868.7</ele>
        <time>2014-06-29T14:24:01Z</time>
      </trkpt>
      <trkpt lat="42.83073" lon="-0.28939">
        <ele>2868.7</ele>
        <time>2014-06-29T14:24:21Z</time>
      </trkpt>
      <trkpt lat="42.83073" lon="-0.28943">
        <ele>2866.8</ele>
        <time>2014-06-29T14:24:41Z</time>
      </trkpt>
      <trkpt lat="42.83072" lon="-0.28945">
        <ele>2867.3</ele>
        <time>2014-06-29T14:25:01Z</time>
      </trkpt>
      <trkpt lat="42.83072" lon="-0.28942">
        <ele>2869.7</ele>
        <time>2014-06-29T14:25:21Z</time>
      </trkpt>
      <trkpt lat="42.83072" lon="-0.28943">
        <ele>2866.8</ele>
        <time>2014-06-29T14:25:41Z</time>
      </trkpt>
      <trkpt lat="42.83073" lon="-0.28943">
        <ele>2869.7</ele>
        <time>2014-06-29T14:26:01Z</time>
      </trkpt>
      <trkpt lat="42.83072" lon="-0.28943">
        <ele>2869.7</ele>
        <time>2014-06-29T14:26:21Z</time>
      </trkpt>
      <trkpt lat="42.83068" lon="-0.28941">
        <ele>2869.2</ele>
        <time>2014-06-29T14:26:41Z</time>
      </trkpt>
      <trkpt lat="42.83063" lon="-0.28942">
        <ele>2867.8</ele>
        <time>2014-06-29T14:27:01Z</time>
      </trkpt>
      <trkpt lat="42.83047" lon="-0.28966">
        <ele>2863.9</ele>
        <time>2014-06-29T14:27:21Z</time>
      </trkpt>
      <trkpt lat="42.83042" lon="-0.28956">
        <ele>2860.5</ele>
        <time>2014-06-29T14:27:41Z</time>
      </trkpt>
      <trkpt lat="42.83033" lon="-0.28961">
        <ele>2852.8</ele>
        <time>2014-06-29T14:28:01Z</time>
      </trkpt>
      <trkpt lat="42.83032" lon="-0.28956">
        <ele>2850.9</ele>
        <time>2014-06-29T14:28:21Z</time>
      </trkpt>
      <trkpt lat="42.83027" lon="-0.28958">
        <ele>2847.1</ele>
        <time>2014-06-29T14:28:41Z</time>
      </trkpt>
      <trkpt lat="42.83024" lon="-0.28961">
        <ele>2846.1</ele>
        <time>2014-06-29T14:29:01Z</time>
      </trkpt>
      <trkpt lat="42.83017" lon="-0.28952">
        <ele>2840.8</ele>
        <time>2014-06-29T14:29:21Z</time>
      </trkpt>
      <trkpt lat="42.83009" lon="-0.28954">
        <ele>2836</ele>
        <time>2014-06-29T14:29:41Z</time>
      </trkpt>
      <trkpt lat="42.83003" lon="-0.28949">
        <ele>2831.2</ele>
        <time>2014-06-29T14:30:01Z</time>
      </trkpt>
      <trkpt lat="42.82987" lon="-0.28964">
        <ele>2825.5</ele>
        <time>2014-06-29T14:30:21Z</time>
      </trkpt>
      <trkpt lat="42.82964" lon="-0.2899">
        <ele>2820.2</ele>
        <time>2014-06-29T14:30:41Z</time>
      </trkpt>
      <trkpt lat="42.82947" lon="-0.28985">
        <ele>2808.1</ele>
        <time>2014-06-29T14:31:01Z</time>
      </trkpt>
      <trkpt lat="42.82948" lon="-0.28977">
        <ele>2806.7</ele>
        <time>2014-06-29T14:31:21Z</time>
      </trkpt>
      <trkpt lat="42.82934" lon="-0.28983">
        <ele>2799.5</ele>
        <time>2014-06-29T14:31:41Z</time>
      </trkpt>
      <trkpt lat="42.82925" lon="-0.29001">
        <ele>2796.1</ele>
        <time>2014-06-29T14:32:01Z</time>
      </trkpt>
      <trkpt lat="42.82905" lon="-0.29065">
        <ele>2787</ele>
        <time>2014-06-29T14:32:21Z</time>
      </trkpt>
      <trkpt lat="42.82882" lon="-0.29051">
        <ele>2782.7</ele>
        <time>2014-06-29T14:32:41Z</time>
      </trkpt>
      <trkpt lat="42.82858" lon="-0.28998">
        <ele>2779.8</ele>
        <time>2014-06-29T14:33:01Z</time>
      </trkpt>
      <trkpt lat="42.82857" lon="-0.28984">
        <ele>2777.9</ele>
        <time>2014-06-29T14:33:21Z</time>
      </trkpt>
      <trkpt lat="42.82855" lon="-0.28977">
        <ele>2775.5</ele>
        <time>2014-06-29T14:33:41Z</time>
      </trkpt>
      <trkpt lat="42.82826" lon="-0.28972">
        <ele>2755.3</ele>
        <time>2014-06-29T14:34:01Z</time>
      </trkpt>
      <trkpt lat="42.8281" lon="-0.28959">
        <ele>2748.1</ele>
        <time>2014-06-29T14:34:21Z</time>
      </trkpt>
      <trkpt lat="42.82807" lon="-0.28946">
        <ele>2747.6</ele>
        <time>2014-06-29T14:34:41Z</time>
      </trkpt>
      <trkpt lat="42.82794" lon="-0.28952">
        <ele>2740.4</ele>
        <time>2014-06-29T14:35:01Z</time>
      </trkpt>
      <trkpt lat="42.82799" lon="-0.29049">
        <ele>2726.9</ele>
        <time>2014-06-29T14:35:21Z</time>
      </trkpt>
      <trkpt lat="42.82779" lon="-0.29045">
        <ele>2718.7</ele>
        <time>2014-06-29T14:35:41Z</time>
      </trkpt>
      <trkpt lat="42.82763" lon="-0.29008">
        <ele>2715.4</ele>
        <time>2014-06-29T14:36:01Z</time>
      </trkpt>
      <trkpt lat="42.82704" lon="-0.28896">
        <ele>2701.9</ele>
        <time>2014-06-29T14:36:21Z</time>
      </trkpt>
      <trkpt lat="42.82697" lon="-0.28902">
        <ele>2695.7</ele>
        <time>2014-06-29T14:36:41Z</time>
      </trkpt>
      <trkpt lat="42.82682" lon="-0.28894">
        <ele>2688.5</ele>
        <time>2014-06-29T14:37:01Z</time>
      </trkpt>
      <trkpt lat="42.82673" lon="-0.28896">
        <ele>2682.2</ele>
        <time>2014-06-29T14:37:21Z</time>
      </trkpt>
      <trkpt lat="42.82675" lon="-0.289">
        <ele>2681.7</ele>
        <time>2014-06-29T14:37:41Z</time>
      </trkpt>
      <trkpt lat="42.82669" lon="-0.28909">
        <ele>2677.4</ele>
        <time>2014-06-29T14:38:01Z</time>
      </trkpt>
      <trkpt lat="42.82651" lon="-0.28921">
        <ele>2666.4</ele>
        <time>2014-06-29T14:38:21Z</time>
      </trkpt>
      <trkpt lat="42.82642" lon="-0.28956">
        <ele>2658.7</ele>
        <time>2014-06-29T14:38:41Z</time>
      </trkpt>
      <trkpt lat="42.8264" lon="-0.2897">
        <ele>2656.7</ele>
        <time>2014-06-29T14:39:01Z</time>
      </trkpt>
      <trkpt lat="42.8263" lon="-0.29003">
        <ele>2649.1</ele>
        <time>2014-06-29T14:39:21Z</time>
      </trkpt>
      <trkpt lat="42.82618" lon="-0.29044">
        <ele>2645.7</ele>
        <time>2014-06-29T14:39:41Z</time>
      </trkpt>
      <trkpt lat="42.82616" lon="-0.2904">
        <ele>2645.2</ele>
        <time>2014-06-29T14:40:01Z</time>
      </trkpt>
      <trkpt lat="42.82604" lon="-0.29043">
        <ele>2639.4</ele>
        <time>2014-06-29T14:40:21Z</time>
      </trkpt>
      <trkpt lat="42.82572" lon="-0.29031">
        <ele>2624.5</ele>
        <time>2014-06-29T14:40:41Z</time>
      </trkpt>
      <trkpt lat="42.82568" lon="-0.2904">
        <ele>2622.1</ele>
        <time>2014-06-29T14:41:01Z</time>
      </trkpt>
      <trkpt lat="42.82535" lon="-0.29052">
        <ele>2611.6</ele>
        <time>2014-06-29T14:41:21Z</time>
      </trkpt>
      <trkpt lat="42.82532" lon="-0.29043">
        <ele>2611.6</ele>
        <time>2014-06-29T14:41:41Z</time>
      </trkpt>
      <trkpt lat="42.82522" lon="-0.29012">
        <ele>2608.7</ele>
        <time>2014-06-29T14:42:01Z</time>
      </trkpt>
      <trkpt lat="42.82502" lon="-0.29021">
        <ele>2597.1</ele>
        <time>2014-06-29T14:42:21Z</time>
      </trkpt>
      <trkpt lat="42.82481" lon="-0.29018">
        <ele>2584.6</ele>
        <time>2014-06-29T14:42:41Z</time>
      </trkpt>
      <trkpt lat="42.82461" lon="-0.28997">
        <ele>2571.2</ele>
        <time>2014-06-29T14:43:01Z</time>
      </trkpt>
      <trkpt lat="42.82449" lon="-0.29015">
        <ele>2566.4</ele>
        <time>2014-06-29T14:43:21Z</time>
      </trkpt>
      <trkpt lat="42.82439" lon="-0.29025">
        <ele>2559.6</ele>
        <time>2014-06-29T14:43:41Z</time>
      </trkpt>
      <trkpt lat="42.824" lon="-0.29035">
        <ele>2533.2</ele>
        <time>2014-06-29T14:44:01Z</time>
      </trkpt>
      <trkpt lat="42.82387" lon="-0.2902">
        <ele>2530.8</ele>
        <time>2014-06-29T14:44:21Z</time>
      </trkpt>
      <trkpt lat="42.82375" lon="-0.29002">
        <ele>2530.8</ele>
        <time>2014-06-29T14:44:41Z</time>
      </trkpt>
      <trkpt lat="42.8237" lon="-0.29002">
        <ele>2527.4</ele>
        <time>2014-06-29T14:45:01Z</time>
      </trkpt>
      <trkpt lat="42.82354" lon="-0.28984">
        <ele>2522.6</ele>
        <time>2014-06-29T14:45:21Z</time>
      </trkpt>
      <trkpt lat="42.8234" lon="-0.28949">
        <ele>2517.3</ele>
        <time>2014-06-29T14:45:41Z</time>
      </trkpt>
      <trkpt lat="42.82324" lon="-0.28874">
        <ele>2506.8</ele>
        <time>2014-06-29T14:46:01Z</time>
      </trkpt>
      <trkpt lat="42.82309" lon="-0.28857">
        <ele>2497.2</ele>
        <time>2014-06-29T14:46:21Z</time>
      </trkpt>
      <trkpt lat="42.82302" lon="-0.28842">
        <ele>2491.4</ele>
        <time>2014-06-29T14:46:41Z</time>
      </trkpt>
      <trkpt lat="42.82276" lon="-0.28816">
        <ele>2480.8</ele>
        <time>2014-06-29T14:47:01Z</time>
      </trkpt>
      <trkpt lat="42.82268" lon="-0.28815">
        <ele>2477.5</ele>
        <time>2014-06-29T14:47:21Z</time>
      </trkpt>
      <trkpt lat="42.82242" lon="-0.28845">
        <ele>2471.7</ele>
        <time>2014-06-29T14:47:41Z</time>
      </trkpt>
      <trkpt lat="42.82226" lon="-0.28855">
        <ele>2465</ele>
        <time>2014-06-29T14:48:01Z</time>
      </trkpt>
      <trkpt lat="42.82203" lon="-0.28875">
        <ele>2460.2</ele>
        <time>2014-06-29T14:48:21Z</time>
      </trkpt>
      <trkpt lat="42.82188" lon="-0.28881">
        <ele>2456.8</ele>
        <time>2014-06-29T14:48:41Z</time>
      </trkpt>
      <trkpt lat="42.82179" lon="-0.28877">
        <ele>2451</ele>
        <time>2014-06-29T14:49:01Z</time>
      </trkpt>
      <trkpt lat="42.8216" lon="-0.28841">
        <ele>2440.4</ele>
        <time>2014-06-29T14:49:21Z</time>
      </trkpt>
      <trkpt lat="42.82165" lon="-0.28824">
        <ele>2438.5</ele>
        <time>2014-06-29T14:49:41Z</time>
      </trkpt>
      <trkpt lat="42.82165" lon="-0.28793">
        <ele>2430.4</ele>
        <time>2014-06-29T14:50:01Z</time>
      </trkpt>
      <trkpt lat="42.82168" lon="-0.2877">
        <ele>2421.7</ele>
        <time>2014-06-29T14:50:21Z</time>
      </trkpt>
      <trkpt lat="42.82179" lon="-0.28743">
        <ele>2413</ele>
        <time>2014-06-29T14:50:41Z</time>
      </trkpt>
      <trkpt lat="42.82181" lon="-0.28701">
        <ele>2401.5</ele>
        <time>2014-06-29T14:51:01Z</time>
      </trkpt>
      <trkpt lat="42.82183" lon="-0.28678">
        <ele>2400.5</ele>
        <time>2014-06-29T14:51:21Z</time>
      </trkpt>
      <trkpt lat="42.82185" lon="-0.2867">
        <ele>2398.6</ele>
        <time>2014-06-29T14:51:41Z</time>
      </trkpt>
      <trkpt lat="42.82201" lon="-0.28645">
        <ele>2394.8</ele>
        <time>2014-06-29T14:52:01Z</time>
      </trkpt>
      <trkpt lat="42.82202" lon="-0.28646">
        <ele>2393.3</ele>
        <time>2014-06-29T14:52:21Z</time>
      </trkpt>
      <trkpt lat="42.82184" lon="-0.28646">
        <ele>2389.5</ele>
        <time>2014-06-29T14:52:41Z</time>
      </trkpt>
      <trkpt lat="42.82177" lon="-0.2865">
        <ele>2388.1</ele>
        <time>2014-06-29T14:53:01Z</time>
      </trkpt>
      <trkpt lat="42.82163" lon="-0.28632">
        <ele>2378.4</ele>
        <time>2014-06-29T14:53:21Z</time>
      </trkpt>
      <trkpt lat="42.82147" lon="-0.28617">
        <ele>2369.3</ele>
        <time>2014-06-29T14:53:41Z</time>
      </trkpt>
      <trkpt lat="42.82137" lon="-0.28626">
        <ele>2366.4</ele>
        <time>2014-06-29T14:54:01Z</time>
      </trkpt>
      <trkpt lat="42.82121" lon="-0.28618">
        <ele>2355.8</ele>
        <time>2014-06-29T14:54:21Z</time>
      </trkpt>
      <trkpt lat="42.82102" lon="-0.28614">
        <ele>2347.7</ele>
        <time>2014-06-29T14:54:41Z</time>
      </trkpt>
      <trkpt lat="42.82098" lon="-0.28611">
        <ele>2347.2</ele>
        <time>2014-06-29T14:55:01Z</time>
      </trkpt>
      <trkpt lat="42.82094" lon="-0.28606">
        <ele>2347.7</ele>
        <time>2014-06-29T14:55:21Z</time>
      </trkpt>
      <trkpt lat="42.82083" lon="-0.28515">
        <ele>2337.6</ele>
        <time>2014-06-29T14:55:41Z</time>
      </trkpt>
      <trkpt lat="42.82089" lon="-0.28512">
        <ele>2330.4</ele>
        <time>2014-06-29T14:56:01Z</time>
      </trkpt>
      <trkpt lat="42.82095" lon="-0.28509">
        <ele>2328.9</ele>
        <time>2014-06-29T14:56:21Z</time>
      </trkpt>
      <trkpt lat="42.8209" lon="-0.28511">
        <ele>2321.2</ele>
        <time>2014-06-29T14:56:41Z</time>
      </trkpt>
      <trkpt lat="42.82114" lon="-0.28482">
        <ele>2306.3</ele>
        <time>2014-06-29T14:57:01Z</time>
      </trkpt>
      <trkpt lat="42.82117" lon="-0.28481">
        <ele>2305.4</ele>
        <time>2014-06-29T14:57:21Z</time>
      </trkpt>
      <trkpt lat="42.82125" lon="-0.28482">
        <ele>2304.4</ele>
        <time>2014-06-29T14:57:41Z</time>
      </trkpt>
      <trkpt lat="42.82151" lon="-0.2841">
        <ele>2292.9</ele>
        <time>2014-06-29T14:58:01Z</time>
      </trkpt>
      <trkpt lat="42.82136" lon="-0.28392">
        <ele>2291.4</ele>
        <time>2014-06-29T14:58:21Z</time>
      </trkpt>
      <trkpt lat="42.82129" lon="-0.28391">
        <ele>2292.4</ele>
        <time>2014-06-29T14:58:41Z</time>
      </trkpt>
      <trkpt lat="42.82104" lon="-0.28401">
        <ele>2289</ele>
        <time>2014-06-29T14:59:01Z</time>
      </trkpt>
      <trkpt lat="42.82083" lon="-0.28406">
        <ele>2285.2</ele>
        <time>2014-06-29T14:59:21Z</time>
      </trkpt>
      <trkpt lat="42.82063" lon="-0.28419">
        <ele>2283.7</ele>
        <time>2014-06-29T14:59:41Z</time>
      </trkpt>
      <trkpt lat="42.82037" lon="-0.28451">
        <ele>2282.3</ele>
        <time>2014-06-29T15:00:01Z</time>
      </trkpt>
      <trkpt lat="42.82023" lon="-0.28459">
        <ele>2279.9</ele>
        <time>2014-06-29T15:00:21Z</time>
      </trkpt>
      <trkpt lat="42.82022" lon="-0.28459">
        <ele>2280.4</ele>
        <time>2014-06-29T15:00:41Z</time>
      </trkpt>
      <trkpt lat="42.82005" lon="-0.28487">
        <ele>2270.8</ele>
        <time>2014-06-29T15:01:01Z</time>
      </trkpt>
      <trkpt lat="42.81991" lon="-0.28504">
        <ele>2264.5</ele>
        <time>2014-06-29T15:01:21Z</time>
      </trkpt>
      <trkpt lat="42.81958" lon="-0.28527">
        <ele>2257.8</ele>
        <time>2014-06-29T15:01:41Z</time>
      </trkpt>
      <trkpt lat="42.81964" lon="-0.28539">
        <ele>2254.9</ele>
        <time>2014-06-29T15:02:01Z</time>
      </trkpt>
      <trkpt lat="42.81944" lon="-0.28572">
        <ele>2240.5</ele>
        <time>2014-06-29T15:02:21Z</time>
      </trkpt>
      <trkpt lat="42.81945" lon="-0.28587">
        <ele>2239.5</ele>
        <time>2014-06-29T15:02:41Z</time>
      </trkpt>
      <trkpt lat="42.81915" lon="-0.28667">
        <ele>2231.4</ele>
        <time>2014-06-29T15:03:01Z</time>
      </trkpt>
      <trkpt lat="42.81915" lon="-0.28667">
        <ele>2216.5</ele>
        <time>2014-06-29T15:03:21Z</time>
      </trkpt>
      <trkpt lat="42.819" lon="-0.28679">
        <ele>2212.1</ele>
        <time>2014-06-29T15:03:41Z</time>
      </trkpt>
      <trkpt lat="42.8186" lon="-0.28695">
        <ele>2191.9</ele>
        <time>2014-06-29T15:04:01Z</time>
      </trkpt>
      <trkpt lat="42.81862" lon="-0.28695">
        <ele>2191.5</ele>
        <time>2014-06-29T15:04:21Z</time>
      </trkpt>
      <trkpt lat="42.81864" lon="-0.28695">
        <ele>2191.9</ele>
        <time>2014-06-29T15:04:41Z</time>
      </trkpt>
      <trkpt lat="42.81838" lon="-0.28723">
        <ele>2186.7</ele>
        <time>2014-06-29T15:05:01Z</time>
      </trkpt>
      <trkpt lat="42.81788" lon="-0.28734">
        <ele>2165.5</ele>
        <time>2014-06-29T15:05:21Z</time>
      </trkpt>
      <trkpt lat="42.81788" lon="-0.28734">
        <ele>2153.5</ele>
        <time>2014-06-29T15:05:41Z</time>
      </trkpt>
      <trkpt lat="42.81728" lon="-0.28775">
        <ele>2151.1</ele>
        <time>2014-06-29T15:06:01Z</time>
      </trkpt>
      <trkpt lat="42.81726" lon="-0.28782">
        <ele>2150.6</ele>
        <time>2014-06-29T15:06:21Z</time>
      </trkpt>
      <trkpt lat="42.81705" lon="-0.28787">
        <ele>2145.3</ele>
        <time>2014-06-29T15:06:41Z</time>
      </trkpt>
      <trkpt lat="42.81687" lon="-0.28785">
        <ele>2141.5</ele>
        <time>2014-06-29T15:07:01Z</time>
      </trkpt>
      <trkpt lat="42.81682" lon="-0.28784">
        <ele>2141</ele>
        <time>2014-06-29T15:07:21Z</time>
      </trkpt>
      <trkpt lat="42.81682" lon="-0.28784">
        <ele>2143.4</ele>
        <time>2014-06-29T15:07:41Z</time>
      </trkpt>
    </trkseg>
  </trk>
</gpx>